createdAt,value
2022-09-06T00:00:16.952Z,102095.84
2022-09-06T00:02:44.924Z,102098.63
2022-09-06T00:05:13.268Z,102092.63
2022-09-06T00:07:40.361Z,102094.59
2022-09-06T00:10:07.753Z,102095.69
2022-09-06T00:12:34.519Z,102098.16
2022-09-06T00:15:01.152Z,102098.91
2022-09-06T00:17:27.844Z,102094.41
2022-09-06T00:19:54.766Z,102105.38
2022-09-06T00:22:21.451Z,102101.34
2022-09-06T00:24:48.019Z,102097.03
2022-09-06T00:27:14.616Z,102102.28
2022-09-06T00:29:41.869Z,102102.34
2022-09-06T00:32:09.096Z,102102.47
2022-09-06T00:34:35.782Z,102098.22
2022-09-06T00:37:02.480Z,102102.63
2022-09-06T00:39:29.246Z,102102.34
2022-09-06T00:41:56.010Z,102095.19
2022-09-06T00:44:22.721Z,102100.44
2022-09-06T00:46:52.203Z,102090.09
2022-09-06T00:49:24.379Z,102097.13
2022-09-06T00:51:55.645Z,102090.34
2022-09-06T00:54:22.456Z,102094.84
2022-09-06T00:56:49.734Z,102089.53
2022-09-06T00:59:17.255Z,102089.69
2022-09-06T01:01:44.069Z,102094.84
2022-09-06T01:04:11.025Z,102091.22
2022-09-06T01:07:05.966Z,102087.66
2022-09-06T01:10:02.868Z,102092.16
2022-09-06T01:12:32.245Z,102087.84
2022-09-06T01:15:13.707Z,102094.34
2022-09-06T01:17:40.269Z,102088.44
2022-09-06T01:20:21.968Z,102089.97
2022-09-06T01:23:10.580Z,102086.66
2022-09-06T01:25:47.033Z,102077.84
2022-09-06T01:28:28.936Z,102079.56
2022-09-06T01:31:30.408Z,102072.78
2022-09-06T01:34:05.937Z,102075.34
2022-09-06T01:37:08.457Z,102071.19
2022-09-06T01:39:36.434Z,102068.81
2022-09-06T01:42:25.805Z,102070.38
2022-09-06T01:44:59.709Z,102074.78
2022-09-06T01:47:29.313Z,102069.72
2022-09-06T01:50:14.290Z,102062.78
2022-09-06T01:53:25.245Z,102064.28
2022-09-06T01:55:58.322Z,102062.00
2022-09-06T01:58:51.481Z,102071.56
2022-09-06T02:01:19.236Z,102064.75
2022-09-06T02:04:00.598Z,102053.72
2022-09-06T02:06:36.274Z,102064.97
2022-09-06T02:09:10.381Z,102062.94
2022-09-06T02:11:49.785Z,102063.03
2022-09-06T02:14:49.785Z,102061.44
2022-09-06T02:17:21.951Z,102063.03
2022-09-06T02:19:54.838Z,102064.91
2022-09-06T02:22:26.106Z,102070.72
2022-09-06T02:24:55.183Z,102068.78
2022-09-06T02:27:21.845Z,102072.16
2022-09-06T02:29:48.697Z,102072.06
2022-09-06T02:32:21.892Z,102070.53
2022-09-06T02:34:54.574Z,102062.69
2022-09-06T02:37:23.883Z,102052.94
2022-09-06T02:39:50.530Z,102056.59
2022-09-06T02:42:17.576Z,102061.75
2022-09-06T02:44:44.275Z,102054.91
2022-09-06T02:47:10.938Z,102058.72
2022-09-06T02:49:37.620Z,102059.84
2022-09-06T02:52:04.390Z,102054.81
2022-09-06T02:54:31.220Z,102066.94
2022-09-06T02:56:57.949Z,102058.31
2022-09-06T02:59:24.549Z,102049.75
2022-09-06T03:01:51.207Z,102054.06
2022-09-06T03:04:17.894Z,102056.84
2022-09-06T03:06:44.557Z,102059.56
2022-09-06T03:09:11.229Z,102060.50
2022-09-06T03:11:38.057Z,102058.91
2022-09-06T03:14:04.872Z,102060.59
2022-09-06T03:16:31.517Z,102061.28
2022-09-06T03:18:58.264Z,102068.69
2022-09-06T03:21:24.946Z,102059.59
2022-09-06T03:23:51.537Z,102065.09
2022-09-06T03:26:18.349Z,102059.84
2022-09-06T03:28:45.243Z,102059.75
2022-09-06T03:31:12.074Z,102068.28
2022-09-06T03:33:38.808Z,102057.03
2022-09-06T03:36:05.559Z,102051.22
2022-09-06T03:38:32.548Z,102052.97
2022-09-06T03:40:59.239Z,102041.84
2022-09-06T03:43:28.107Z,102043.59
2022-09-06T03:45:57.835Z,102048.00
2022-09-06T03:48:26.787Z,102047.16
2022-09-06T03:50:55.765Z,102049.59
2022-09-06T03:53:24.157Z,102047.91
2022-09-06T03:55:53.021Z,102050.69
2022-09-06T03:58:21.531Z,102052.47
2022-09-06T04:00:48.924Z,102060.56
2022-09-06T04:03:15.842Z,102053.84
2022-09-06T04:05:46.522Z,102049.69
2022-09-06T04:08:13.550Z,102055.59
2022-09-06T04:10:40.554Z,102051.38
2022-09-06T04:13:07.158Z,102045.22
2022-09-06T04:15:33.756Z,102044.19
2022-09-06T04:18:00.436Z,102037.34
2022-09-06T04:20:27.113Z,102045.44
2022-09-06T04:22:53.759Z,102050.97
2022-09-06T04:25:20.383Z,102042.44
2022-09-06T04:27:47.041Z,102037.38
2022-09-06T04:30:13.654Z,102041.50
2022-09-06T04:32:40.501Z,102038.41
2022-09-06T04:35:07.698Z,102038.41
2022-09-06T04:37:34.464Z,102028.75
2022-09-06T04:40:01.290Z,102036.34
2022-09-06T04:42:28.063Z,102034.75
2022-09-06T04:44:54.782Z,102028.50
2022-09-06T04:47:21.414Z,102040.66
2022-09-06T04:49:51.162Z,102032.91
2022-09-06T04:52:18.101Z,102031.38
2022-09-06T04:54:44.894Z,102026.47
2022-09-06T04:57:11.512Z,102019.63
2022-09-06T04:59:38.375Z,102021.31
2022-09-06T05:02:05.084Z,102016.53
2022-09-06T05:04:31.762Z,102027.56
2022-09-06T05:07:07.122Z,102008.56
2022-09-06T05:09:34.186Z,102013.66
2022-09-06T05:12:01.662Z,102018.78
2022-09-06T05:14:28.954Z,102011.03
2022-09-06T05:16:55.973Z,102014.72
2022-09-06T05:19:23.126Z,102006.56
2022-09-06T05:21:51.435Z,102005.69
2022-09-06T05:24:18.306Z,102006.38
2022-09-06T05:26:44.972Z,102010.41
2022-09-06T05:29:11.661Z,102000.44
2022-09-06T05:31:38.434Z,101994.16
2022-09-06T05:34:05.351Z,102009.53
2022-09-06T05:36:32.077Z,102011.56
2022-09-06T05:38:59.423Z,102001.84
2022-09-06T05:41:26.456Z,102004.13
2022-09-06T05:43:53.148Z,102009.63
2022-09-06T05:46:20.191Z,102006.69
2022-09-06T05:49:01.238Z,102010.13
2022-09-06T05:51:32.857Z,102022.03
2022-09-06T05:53:59.944Z,102013.34
2022-09-06T05:56:26.479Z,102009.88
2022-09-06T05:58:53.048Z,102019.34
2022-09-06T06:01:26.731Z,102015.78
2022-09-06T06:03:58.989Z,102015.13
2022-09-06T06:06:27.906Z,102016.06
2022-09-06T06:08:54.892Z,102010.63
2022-09-06T06:11:22.027Z,102021.44
2022-09-06T06:13:48.906Z,102031.75
2022-09-06T06:16:17.758Z,102027.78
2022-09-06T06:18:47.656Z,102024.38
2022-09-06T06:21:22.561Z,102018.88
2022-09-06T06:24:01.201Z,102017.53
2022-09-06T06:26:31.658Z,102030.06
2022-09-06T06:29:01.796Z,102022.97
2022-09-06T06:31:33.351Z,102015.97
2022-09-06T06:34:03.208Z,102016.72
2022-09-06T06:36:31.761Z,102027.63
2022-09-06T06:38:58.625Z,102015.91
2022-09-06T06:41:27.580Z,102020.13
2022-09-06T06:43:56.364Z,102020.63
2022-09-06T06:46:25.281Z,102023.19
2022-09-06T06:48:55.184Z,102020.66
2022-09-06T06:51:24.132Z,102014.50
2022-09-06T06:53:51.548Z,102018.03
2022-09-06T06:56:22.359Z,102021.97
2022-09-06T06:58:51.240Z,102008.66
2022-09-06T07:01:20.575Z,102016.28
2022-09-06T07:03:48.087Z,102000.88
2022-09-06T07:06:15.426Z,102011.84
2022-09-06T07:08:42.604Z,102012.50
2022-09-06T07:11:11.721Z,102016.81
2022-09-06T07:13:38.682Z,102020.56
2022-09-06T07:16:20.018Z,102013.88
2022-09-06T07:18:47.756Z,102012.63
2022-09-06T07:26:38.919Z,102019.53
2022-09-06T07:29:07.256Z,102022.59
2022-09-06T07:34:22.124Z,102021.88
2022-09-06T07:36:51.611Z,102022.97
2022-09-06T07:39:18.268Z,102010.78
2022-09-06T07:41:44.995Z,102011.00
2022-09-06T07:44:11.649Z,102012.19
2022-09-06T07:46:38.514Z,102009.13
2022-09-06T07:49:06.162Z,102005.88
2022-09-06T07:51:33.014Z,102007.47
2022-09-06T07:54:34.643Z,102015.25
2022-09-06T07:56:47.542Z,102009.44
2022-09-06T07:59:14.312Z,102010.94
2022-09-06T08:01:41.621Z,102013.03
2022-09-06T08:04:10.785Z,102013.22
2022-09-06T08:09:27.329Z,102012.19
2022-09-06T08:11:53.963Z,102012.31
2022-09-06T08:14:20.632Z,102007.28
2022-09-06T08:16:47.344Z,102002.75
2022-09-06T08:19:14.360Z,102001.47
2022-09-06T08:21:41.219Z,102003.38
2022-09-06T08:24:12.466Z,101993.78
2022-09-06T08:26:40.594Z,102001.91
2022-09-06T08:29:09.010Z,101991.28
2022-09-06T08:31:41.218Z,101998.22
2022-09-06T08:34:08.275Z,101997.69
2022-09-06T08:36:35.304Z,101998.09
2022-09-06T08:39:05.454Z,101994.41
2022-09-06T08:41:49.008Z,101998.63
2022-09-06T08:47:16.960Z,101991.00
2022-09-06T08:49:49.273Z,101979.44
2022-09-06T08:52:49.570Z,101975.53
2022-09-06T08:55:44.514Z,101980.47
2022-09-06T08:58:33.962Z,101968.84
2022-09-06T09:01:08.738Z,101964.22
2022-09-06T09:03:37.722Z,101966.91
2022-09-06T09:06:07.716Z,101964.84
2022-09-06T09:08:37.223Z,101964.63
2022-09-06T09:11:09.036Z,101966.91
2022-09-06T09:13:40.591Z,101957.94
2022-09-06T09:16:07.606Z,101948.00
2022-09-06T09:18:38.840Z,101953.63
2022-09-06T09:21:05.930Z,101949.22
2022-09-06T09:23:32.573Z,101944.88
2022-09-06T09:26:04.668Z,101938.31
2022-09-06T09:28:31.684Z,101940.59
2022-09-06T09:30:58.876Z,101940.47
2022-09-06T09:33:35.869Z,101929.44
2022-09-06T09:36:07.927Z,101925.59
2022-09-06T09:38:52.968Z,101930.28
2022-09-06T09:41:38.336Z,101930.03
2022-09-06T09:44:09.193Z,101923.66
2022-09-06T09:46:37.576Z,101917.66
2022-09-06T09:49:04.203Z,101921.38
2022-09-06T09:51:36.255Z,101918.50
2022-09-06T09:54:05.708Z,101916.25
2022-09-06T09:56:53.852Z,101911.91
2022-09-06T09:59:44.172Z,101909.91
2022-09-06T10:02:35.747Z,101893.25
2022-09-06T10:05:04.325Z,101903.44
2022-09-06T10:07:33.903Z,101896.00
2022-09-06T10:10:07.308Z,101895.31
2022-09-06T10:12:38.756Z,101876.25
2022-09-06T10:15:08.403Z,101881.00
2022-09-06T10:17:38.020Z,101884.69
2022-09-06T10:20:11.566Z,101877.38
2022-09-06T10:23:03.144Z,101881.84
2022-09-06T10:25:54.674Z,101880.63
2022-09-06T10:28:33.605Z,101878.91
2022-09-06T10:31:11.050Z,101887.69
2022-09-06T10:33:49.665Z,101884.81
2022-09-06T10:36:22.770Z,101877.00
2022-09-06T10:39:04.208Z,101885.78
2022-09-06T10:41:48.584Z,101876.34
2022-09-06T10:45:02.936Z,101883.03
2022-09-06T10:47:50.430Z,101872.50
2022-09-06T10:50:17.405Z,101875.06
2022-09-06T10:52:47.089Z,101866.13
2022-09-06T10:55:18.237Z,101868.28
2022-09-06T11:00:47.309Z,101857.44
2022-09-06T11:06:22.514Z,101855.41
2022-09-06T11:08:59.578Z,101862.47
2022-09-06T11:11:58.484Z,101855.00
2022-09-06T11:14:27.292Z,101847.00
2022-09-06T11:17:00.714Z,101836.47
2022-09-06T11:19:45.242Z,101858.66
2022-09-06T11:22:50.858Z,101856.88
2022-09-06T11:25:39.733Z,101852.75
2022-09-06T11:28:13.153Z,101851.91
2022-09-06T11:30:47.131Z,101853.06
2022-09-06T11:33:26.141Z,101847.63
2022-09-06T11:35:54.308Z,101845.31
2022-09-06T11:38:25.558Z,101843.19
2022-09-06T11:41:02.734Z,101841.44
2022-09-06T11:43:52.578Z,101844.63
2022-09-06T11:46:34.390Z,101843.47
2022-09-06T11:49:04.872Z,101839.41
2022-09-06T11:51:38.759Z,101843.53
2022-09-06T11:54:14.821Z,101833.38
2022-09-06T11:56:47.284Z,101837.84
2022-09-06T11:59:16.459Z,101828.91
2022-09-06T12:02:00.991Z,101830.56
2022-09-06T12:05:01.646Z,101824.41
2022-09-06T12:07:30.444Z,101822.56
2022-09-06T12:09:57.437Z,101816.91
2022-09-06T12:12:45.963Z,101822.88
2022-09-06T12:15:24.682Z,101814.56
2022-09-06T12:17:51.378Z,101819.34
2022-09-06T12:20:49.050Z,101814.56
2022-09-06T12:23:34.218Z,101814.16
2022-09-06T12:26:05.840Z,101817.78
2022-09-06T12:28:51.373Z,101819.84
2022-09-06T12:31:38.239Z,101810.53
2022-09-06T12:34:21.070Z,101810.91
2022-09-06T12:36:51.576Z,101814.06
2022-09-06T12:39:18.182Z,101800.59
2022-09-06T12:41:49.295Z,101803.16
2022-09-06T12:44:17.966Z,101798.75
2022-09-06T12:46:49.844Z,101805.34
2022-09-06T12:49:21.247Z,101789.84
2022-09-06T12:51:48.129Z,101796.09
2022-09-06T12:54:26.518Z,101799.44
2022-09-06T12:57:04.536Z,101793.19
2022-09-06T12:59:32.348Z,101790.56
2022-09-06T13:02:10.824Z,101789.41
2022-09-06T13:04:49.504Z,101791.50
2022-09-06T13:07:19.072Z,101783.41
2022-09-06T13:09:51.965Z,101792.28
2022-09-06T13:12:29.576Z,101783.16
2022-09-06T13:14:58.196Z,101776.63
2022-09-06T13:17:29.858Z,101766.88
2022-09-06T13:19:58.133Z,101760.94
2022-09-06T13:22:47.422Z,101761.47
2022-09-06T13:25:33.455Z,101763.19
2022-09-06T13:28:01.562Z,101762.03
2022-09-06T13:30:38.698Z,101759.78
2022-09-06T13:33:07.527Z,101753.28
2022-09-06T13:35:37.413Z,101753.03
2022-09-06T13:38:31.129Z,101758.56
2022-09-06T13:41:16.560Z,101751.28
2022-09-06T13:43:45.633Z,101755.16
2022-09-06T13:46:12.427Z,101750.06
2022-09-06T13:48:44.694Z,101747.59
2022-09-06T13:51:11.453Z,101760.69
2022-09-06T13:53:38.075Z,101748.41
2022-09-06T13:56:08.622Z,101753.53
2022-09-06T13:58:36.633Z,101756.94
2022-09-06T14:01:04.266Z,101746.91
2022-09-06T14:03:32.434Z,101746.19
2022-09-06T14:06:02.444Z,101743.94
2022-09-06T14:08:49.228Z,101743.78
2022-09-06T14:11:16.275Z,101744.06
2022-09-06T14:13:42.950Z,101738.66
2022-09-06T14:16:10.189Z,101734.78
2022-09-06T14:18:36.946Z,101742.50
2022-09-06T14:21:05.435Z,101730.41
2022-09-06T14:23:32.161Z,101733.16
2022-09-06T14:26:00.428Z,101728.94
2022-09-06T14:28:27.777Z,101726.00
2022-09-06T14:30:57.805Z,101726.00
2022-09-06T14:33:24.540Z,101731.81
2022-09-06T14:35:51.199Z,101717.50
2022-09-06T14:38:17.837Z,101719.69
2022-09-06T14:40:44.465Z,101712.88
2022-09-06T14:43:11.261Z,101711.56
2022-09-06T14:45:38.062Z,101712.94
2022-09-06T14:48:05.607Z,101704.88
2022-09-06T14:50:32.300Z,101710.59
2022-09-06T14:52:59.110Z,101699.78
2022-09-06T14:55:25.746Z,101692.09
2022-09-06T14:57:52.458Z,101690.38
2022-09-06T15:00:19.314Z,101686.19
2022-09-06T15:02:46.088Z,101692.31
2022-09-06T15:05:12.766Z,101693.66
2022-09-06T15:07:39.386Z,101674.19
2022-09-06T15:10:06.343Z,101680.28
2022-09-06T15:12:33.213Z,101695.09
2022-09-06T15:14:59.963Z,101677.03
2022-09-06T15:17:26.680Z,101684.50
2022-09-06T15:19:54.297Z,101677.22
2022-09-06T15:22:20.973Z,101680.56
2022-09-06T15:24:50.281Z,101681.28
2022-09-06T15:27:18.299Z,101672.38
2022-09-06T15:29:45.056Z,101670.16
2022-09-06T15:32:11.734Z,101673.03
2022-09-06T15:34:38.756Z,101674.94
2022-09-06T15:37:05.418Z,101664.00
2022-09-06T15:39:34.914Z,101672.72
2022-09-06T15:42:01.785Z,101665.44
2022-09-06T15:44:28.553Z,101658.41
2022-09-06T15:46:58.077Z,101661.28
2022-09-06T15:49:28.567Z,101652.31
2022-09-06T15:51:58.197Z,101652.47
2022-09-06T15:54:43.764Z,101646.41
2022-09-06T15:57:10.651Z,101652.00
2022-09-06T15:59:38.801Z,101640.31
2022-09-06T16:02:05.656Z,101652.81
2022-09-06T16:04:32.322Z,101646.97
2022-09-06T16:06:58.952Z,101651.16
2022-09-06T16:09:25.769Z,101647.25
2022-09-06T16:11:52.583Z,101637.06
2022-09-06T16:14:19.426Z,101630.59
2022-09-06T16:16:46.183Z,101635.88
2022-09-06T16:19:13.516Z,101627.13
2022-09-06T16:21:42.683Z,101633.81
2022-09-06T16:24:12.560Z,101630.38
2022-09-06T16:26:42.344Z,101624.13
2022-09-06T16:29:11.036Z,101630.47
2022-09-06T16:31:40.633Z,101621.97
2022-09-06T16:34:09.567Z,101627.88
2022-09-06T16:36:36.323Z,101625.34
2022-09-06T16:39:03.965Z,101621.34
2022-09-06T16:41:42.764Z,101628.78
2022-09-06T16:44:16.297Z,101625.53
2022-09-06T16:46:45.629Z,101623.41
2022-09-06T16:49:12.690Z,101621.72
2022-09-06T16:51:42.824Z,101627.00
2022-09-06T16:54:12.331Z,101618.47
2022-09-06T16:56:42.691Z,101618.44
2022-09-06T16:59:15.174Z,101607.06
2022-09-06T17:01:45.608Z,101613.19
2022-09-06T17:04:13.184Z,101616.91
2022-09-06T17:06:44.569Z,101612.59
2022-09-06T17:09:16.583Z,101612.34
2022-09-06T17:11:43.421Z,101605.78
2022-09-06T17:14:10.191Z,101609.50
2022-09-06T17:16:55.408Z,101604.91
2022-09-06T17:19:22.390Z,101610.91
2022-09-06T17:21:56.675Z,101609.50
2022-09-06T17:24:23.514Z,101605.44
2022-09-06T17:26:53.217Z,101616.06
2022-09-06T17:29:20.032Z,101610.78
2022-09-06T17:31:47.826Z,101605.28
2022-09-06T17:34:14.505Z,101610.31
2022-09-06T17:36:44.143Z,101615.00
2022-09-06T17:39:15.456Z,101618.31
2022-09-06T17:41:55.345Z,101615.22
2022-09-06T17:44:25.318Z,101612.94
2022-09-06T17:47:11.390Z,101601.81
2022-09-06T17:49:39.361Z,101602.03
2022-09-06T17:52:05.986Z,101601.06
2022-09-06T17:54:32.772Z,101603.78
2022-09-06T17:56:59.493Z,101599.03
2022-09-06T17:59:26.182Z,101602.34
2022-09-06T18:01:55.426Z,101603.53
2022-09-06T18:04:22.110Z,101597.72
2022-09-06T18:06:48.789Z,101602.50
2022-09-06T18:09:17.787Z,101600.22
2022-09-06T18:11:48.325Z,101589.91
2022-09-06T18:14:17.402Z,101588.91
2022-09-06T18:16:56.553Z,101586.13
2022-09-06T18:19:23.580Z,101595.63
2022-09-06T18:21:50.831Z,101599.34
2022-09-06T18:24:17.728Z,101596.31
2022-09-06T18:26:47.317Z,101595.59
2022-09-06T18:29:18.561Z,101596.88
2022-09-06T18:31:45.831Z,101598.78
2022-09-06T18:34:13.109Z,101603.19
2022-09-06T18:36:40.462Z,101601.84
2022-09-06T18:39:07.163Z,101607.88
2022-09-06T18:41:53.403Z,101602.81
2022-09-06T18:44:20.358Z,101607.56
2022-09-06T18:46:47.943Z,101610.94
2022-09-06T18:49:18.539Z,101613.91
2022-09-06T18:51:45.585Z,101614.31
2022-09-06T18:54:13.162Z,101613.03
2022-09-06T18:56:40.323Z,101610.13
2022-09-06T18:59:09.861Z,101596.34
2022-09-06T19:01:36.806Z,101601.81
2022-09-06T19:04:05.313Z,101601.28
2022-09-06T19:06:35.204Z,101601.50
2022-09-06T19:09:08.806Z,101596.16
2022-09-06T19:11:35.848Z,101601.00
2022-09-06T19:14:03.636Z,101603.31
2022-09-06T19:16:31.360Z,101593.84
2022-09-06T19:19:04.849Z,101596.47
2022-09-06T19:21:32.610Z,101587.88
2022-09-06T19:24:08.307Z,101588.94
2022-09-06T19:26:37.843Z,101588.94
2022-09-06T19:29:08.800Z,101594.50
2022-09-06T19:31:38.772Z,101591.56
2022-09-06T19:34:05.920Z,101591.22
2022-09-06T19:36:32.964Z,101586.50
2022-09-06T19:39:04.376Z,101587.34
2022-09-06T19:41:33.788Z,101582.41
2022-09-06T19:44:01.561Z,101581.34
2022-09-06T19:46:28.465Z,101583.34
2022-09-06T19:48:58.849Z,101577.56
2022-09-06T19:51:25.765Z,101579.47
2022-09-06T19:53:54.682Z,101581.75
2022-09-06T19:56:33.792Z,101579.13
2022-09-06T19:59:03.322Z,101573.13
2022-09-06T20:01:32.538Z,101575.13
2022-09-06T20:04:00.639Z,101571.66
2022-09-06T20:06:27.462Z,101564.19
2022-09-06T20:08:56.060Z,101566.81
2022-09-06T20:11:25.914Z,101568.78
2022-09-06T20:13:52.888Z,101563.66
2022-09-06T20:16:20.983Z,101556.72
2022-09-06T20:18:48.528Z,101558.88
2022-09-06T20:21:15.449Z,101554.91
2022-09-06T20:23:42.139Z,101566.25
2022-09-06T20:26:11.299Z,101560.81
2022-09-06T20:28:38.180Z,101551.75
2022-09-06T20:31:11.325Z,101563.41
2022-09-06T20:33:38.150Z,101562.56
2022-09-06T20:36:07.230Z,101566.66
2022-09-06T20:38:36.456Z,101568.34
2022-09-06T20:41:08.705Z,101571.28
2022-09-06T20:43:37.102Z,101572.44
2022-09-06T20:46:16.442Z,101566.25
2022-09-06T20:48:45.320Z,101566.72
2022-09-06T20:51:18.968Z,101561.06
2022-09-06T20:53:55.172Z,101563.25
2022-09-06T20:56:24.312Z,101560.81
2022-09-06T20:58:55.491Z,101561.84
2022-09-06T21:01:25.226Z,101565.50
2022-09-06T21:03:57.399Z,101559.53
2022-09-06T21:06:26.084Z,101562.44
2022-09-06T21:08:52.816Z,101560.97
2022-09-06T21:11:20.152Z,101553.84
2022-09-06T21:13:51.232Z,101552.06
2022-09-06T21:16:24.388Z,101561.03
2022-09-06T21:18:53.133Z,101557.88
2022-09-06T21:21:21.454Z,101558.72
2022-09-06T21:23:48.891Z,101560.28
2022-09-06T21:26:16.006Z,101558.81
2022-09-06T21:28:43.492Z,101555.16
2022-09-06T21:31:24.904Z,101554.97
2022-09-06T21:33:56.795Z,101552.63
2022-09-06T21:36:27.509Z,101546.66
2022-09-06T21:38:55.668Z,101550.50
2022-09-06T21:41:23.370Z,101547.44
2022-09-06T21:43:54.203Z,101553.31
2022-09-06T21:46:22.618Z,101550.63
2022-09-06T21:48:51.605Z,101551.75
2022-09-06T21:51:20.688Z,101554.38
2022-09-06T21:53:49.525Z,101554.25
2022-09-06T21:56:19.617Z,101551.63
2022-09-06T21:58:50.347Z,101555.19
2022-09-06T22:01:17.277Z,101539.97
2022-09-06T22:03:44.584Z,101550.63
2022-09-06T22:06:16.923Z,101556.44
2022-09-06T22:08:44.538Z,101548.13
2022-09-06T22:11:20.136Z,101540.47
2022-09-06T22:13:47.715Z,101537.38
2022-09-06T22:16:17.224Z,101535.69
2022-09-06T22:18:44.964Z,101533.91
2022-09-06T22:21:18.443Z,101529.44
2022-09-06T22:23:50.816Z,101522.78
2022-09-06T22:26:18.124Z,101521.84
2022-09-06T22:28:45.222Z,101513.06
2022-09-06T22:31:12.221Z,101513.16
2022-09-06T22:33:42.114Z,101513.16
2022-09-06T22:36:10.696Z,101505.84
2022-09-06T22:38:37.547Z,101501.38
2022-09-06T22:41:05.836Z,101502.25
2022-09-06T22:43:32.569Z,101497.00
2022-09-06T22:46:05.751Z,101491.66
2022-09-06T22:48:33.920Z,101485.47
2022-09-06T22:51:01.766Z,101478.69
2022-09-06T22:53:29.284Z,101479.63
2022-09-06T22:55:56.145Z,101488.00
2022-09-06T22:58:27.629Z,101478.38
2022-09-06T23:00:55.142Z,101472.69
2022-09-06T23:03:22.403Z,101461.47
2022-09-06T23:05:49.416Z,101468.47
2022-09-06T23:08:17.813Z,101461.63
2022-09-06T23:10:44.856Z,101459.69
2022-09-06T23:13:11.810Z,101455.38
2022-09-06T23:15:46.077Z,101452.84
2022-09-06T23:18:14.081Z,101459.69
2022-09-06T23:20:41.093Z,101453.03
2022-09-06T23:23:08.262Z,101452.09
2022-09-06T23:25:38.998Z,101458.28
2022-09-06T23:28:06.171Z,101453.03
2022-09-06T23:30:35.956Z,101447.13
2022-09-06T23:33:03.820Z,101436.84
2022-09-06T23:35:30.756Z,101443.03
2022-09-06T23:37:57.663Z,101437.06
2022-09-06T23:40:24.347Z,101436.03
2022-09-06T23:42:51.007Z,101442.00
2022-09-06T23:45:18.151Z,101441.16
2022-09-06T23:47:44.790Z,101444.50
2022-09-06T23:50:11.525Z,101438.66
2022-09-06T23:52:38.179Z,101429.31
2022-09-06T23:55:05.488Z,101435.41
2022-09-06T23:57:32.230Z,101432.56
2022-09-06T23:59:58.923Z,101422.00
